createdAt,value
2019-01-04T00:00:42.337Z,1.34
2019-01-04T00:03:11.443Z,1.38
2019-01-04T00:05:39.925Z,1.28
2019-01-04T00:08:08.343Z,1.18
2019-01-04T00:10:36.736Z,1.32
2019-01-04T00:13:05.396Z,1.24
2019-01-04T00:15:34.088Z,1.33
2019-01-04T00:18:02.475Z,1.25
2019-01-04T00:20:31.458Z,1.18
2019-01-04T00:22:59.869Z,1.31
2019-01-04T00:25:28.275Z,1.29
2019-01-04T00:27:57.003Z,1.23
2019-01-04T00:30:25.463Z,1.23
2019-01-04T00:32:53.868Z,1.31
2019-01-04T00:35:22.268Z,1.30
2019-01-04T00:37:51.026Z,1.32
2019-01-04T00:40:19.420Z,1.40
2019-01-04T00:42:47.823Z,1.37
2019-01-04T00:45:16.227Z,1.36
2019-01-04T00:47:44.950Z,1.41
2019-01-04T00:50:13.530Z,1.25
2019-01-04T00:52:41.926Z,1.41
2019-01-04T00:55:16.033Z,1.49
2019-01-04T00:57:59.557Z,1.29
2019-01-04T01:00:40.088Z,1.28
2019-01-04T01:03:31.148Z,1.33
2019-01-04T01:06:05.665Z,1.42
2019-01-04T01:09:08.930Z,1.37
2019-01-04T01:11:57.049Z,1.40
2019-01-04T01:14:50.912Z,1.29
2019-01-04T01:17:27.929Z,1.19
2019-01-04T01:19:59.391Z,1.16
2019-01-04T01:22:48.581Z,1.25
2019-01-04T01:25:23.251Z,1.22
2019-01-04T01:28:11.439Z,1.28
2019-01-04T01:30:42.904Z,1.17
2019-01-04T01:33:26.262Z,1.38
2019-01-04T01:36:00.395Z,1.22
2019-01-04T01:38:31.840Z,1.14
2019-01-04T01:41:28.911Z,1.15
2019-01-04T01:44:06.430Z,1.16
2019-01-04T01:46:46.792Z,1.20
2019-01-04T01:49:21.356Z,1.21
2019-01-04T01:51:53.058Z,1.27
2019-01-04T01:54:21.469Z,1.11
2019-01-04T01:56:50.104Z,1.23
2019-01-04T01:59:18.591Z,1.32
2019-01-04T02:01:47.305Z,1.25
2019-01-04T02:04:15.709Z,1.27
2019-01-04T02:06:44.110Z,1.22
2019-01-04T02:09:12.508Z,1.31
2019-01-04T02:11:41.239Z,1.32
2019-01-04T02:14:09.629Z,1.39
2019-01-04T02:16:38.030Z,1.19
2019-01-04T02:19:06.502Z,1.31
2019-01-04T02:21:34.897Z,1.23
2019-01-04T02:24:03.630Z,1.19
2019-01-04T02:26:32.023Z,1.18
2019-01-04T02:29:00.699Z,1.16
2019-01-04T02:31:29.114Z,1.13
2019-01-04T02:33:57.762Z,1.02
2019-01-04T02:36:26.160Z,0.96
2019-01-04T02:38:54.822Z,0.99
2019-01-04T02:41:23.216Z,0.87
2019-01-04T02:43:51.623Z,1.01
2019-01-04T02:46:20.269Z,0.97
2019-01-04T02:48:48.954Z,0.97
2019-01-04T02:51:17.638Z,0.92
2019-01-04T02:53:46.048Z,0.99
2019-01-04T02:56:14.702Z,0.86
2019-01-04T02:58:43.113Z,0.84
2019-01-04T03:01:11.872Z,0.95
2019-01-04T03:03:40.270Z,1.03
2019-01-04T03:06:08.679Z,1.00
2019-01-04T03:08:37.080Z,0.93
2019-01-04T03:11:05.799Z,0.92
2019-01-04T03:13:34.213Z,0.96
2019-01-04T03:16:02.600Z,0.87
2019-01-04T03:18:30.998Z,1.04
2019-01-04T03:20:59.724Z,0.87
2019-01-04T03:23:28.118Z,0.85
2019-01-04T03:25:56.517Z,0.97
2019-01-04T03:28:25.266Z,0.90
2019-01-04T03:30:54.384Z,1.00
2019-01-04T03:33:23.151Z,0.97
2019-01-04T03:35:51.575Z,0.94
2019-01-04T03:38:19.960Z,0.90
2019-01-04T03:40:48.355Z,0.90
2019-01-04T03:43:16.767Z,0.98
2019-01-04T03:45:45.171Z,0.91
2019-01-04T03:48:13.562Z,0.98
2019-01-04T03:50:41.971Z,0.93
2019-01-04T03:53:10.369Z,1.06
2019-01-04T03:55:39.073Z,1.02
2019-01-04T03:58:07.491Z,1.04
2019-01-04T04:00:35.891Z,1.03
2019-01-04T04:03:04.295Z,1.07
2019-01-04T04:05:33.181Z,1.11
2019-01-04T04:08:01.890Z,1.00
2019-01-04T04:10:30.352Z,1.01
2019-01-04T04:12:58.761Z,1.14
2019-01-04T04:15:27.474Z,1.05
2019-01-04T04:17:55.876Z,1.03
2019-01-04T04:20:24.598Z,0.95
2019-01-04T04:22:52.995Z,1.01
2019-01-04T04:25:21.395Z,1.06
2019-01-04T04:27:49.809Z,0.99
2019-01-04T04:30:18.204Z,1.03
2019-01-04T04:32:46.903Z,0.94
2019-01-04T04:35:15.315Z,0.94
2019-01-04T04:37:43.714Z,0.94
2019-01-04T04:40:12.107Z,0.98
2019-01-04T04:42:40.511Z,0.99
2019-01-04T04:45:09.208Z,0.98
2019-01-04T04:47:37.892Z,0.96
2019-01-04T04:50:06.439Z,1.08
2019-01-04T04:52:34.832Z,1.03
2019-01-04T04:55:03.230Z,0.93
2019-01-04T04:57:31.919Z,0.86
2019-01-04T05:00:00.387Z,0.90
2019-01-04T05:02:29.089Z,0.96
2019-01-04T05:04:57.771Z,0.94
2019-01-04T05:07:26.168Z,1.02
2019-01-04T05:09:54.563Z,0.97
2019-01-04T05:12:22.976Z,0.97
2019-01-04T05:14:51.618Z,0.96
2019-01-04T05:17:20.012Z,0.94
2019-01-04T05:19:48.425Z,0.92
2019-01-04T05:22:17.138Z,0.86
2019-01-04T05:24:45.535Z,0.94
2019-01-04T05:27:14.189Z,0.94
2019-01-04T05:29:42.587Z,0.93
2019-01-04T05:32:11.269Z,0.86
2019-01-04T05:34:39.953Z,0.90
2019-01-04T05:37:08.356Z,0.93
2019-01-04T05:39:37.019Z,0.97
2019-01-04T05:42:05.441Z,1.05
2019-01-04T05:44:33.827Z,1.05
2019-01-04T05:47:02.463Z,0.92
2019-01-04T05:49:31.147Z,1.03
2019-01-04T05:51:59.841Z,1.03
2019-01-04T05:54:28.230Z,1.03
2019-01-04T05:56:56.635Z,1.06
2019-01-04T05:59:25.022Z,1.12
2019-01-04T06:01:53.759Z,1.08
2019-01-04T06:04:22.174Z,1.04
2019-01-04T06:06:50.825Z,1.14
2019-01-04T06:09:19.224Z,1.16
2019-01-04T06:11:47.635Z,1.10
2019-01-04T06:14:16.027Z,1.08
2019-01-04T06:16:44.430Z,1.04
2019-01-04T06:19:12.844Z,1.04
2019-01-04T06:21:41.236Z,0.95
2019-01-04T06:24:09.632Z,0.99
2019-01-04T06:26:38.045Z,1.01
2019-01-04T06:29:06.438Z,0.95
2019-01-04T06:31:35.126Z,0.94
2019-01-04T06:34:03.536Z,0.94
2019-01-04T06:36:32.172Z,0.92
2019-01-04T06:39:00.570Z,1.01
2019-01-04T06:41:28.983Z,1.01
2019-01-04T06:43:57.618Z,1.00
2019-01-04T06:46:26.255Z,0.89
2019-01-04T06:48:54.664Z,0.94
2019-01-04T06:51:27.716Z,0.87
2019-01-04T06:53:53.177Z,0.90
2019-01-04T06:56:21.597Z,0.88
2019-01-04T06:58:49.986Z,0.86
2019-01-04T07:01:18.377Z,0.79
2019-01-04T07:03:46.790Z,0.82
2019-01-04T07:06:15.237Z,0.78
2019-01-04T07:08:43.974Z,0.75
2019-01-04T07:11:12.389Z,0.73
2019-01-04T07:13:40.846Z,0.78
2019-01-04T07:16:09.239Z,0.78
2019-01-04T07:18:37.903Z,0.84
2019-01-04T07:21:06.293Z,0.90
2019-01-04T07:23:34.689Z,0.93
2019-01-04T07:26:03.451Z,0.88
2019-01-04T07:28:32.135Z,0.93
2019-01-04T07:31:00.534Z,0.93
2019-01-04T07:33:28.941Z,0.89
2019-01-04T07:35:57.335Z,0.91
2019-01-04T07:38:26.059Z,0.88
2019-01-04T07:40:54.475Z,0.93
2019-01-04T07:43:22.870Z,1.00
2019-01-04T07:45:51.604Z,0.87
2019-01-04T07:48:20.025Z,0.94
2019-01-04T07:50:48.408Z,0.98
2019-01-04T07:53:16.800Z,0.91
2019-01-04T07:55:45.209Z,0.95
2019-01-04T07:58:13.911Z,0.93
2019-01-04T08:00:42.301Z,1.00
2019-01-04T08:03:10.723Z,1.02
2019-01-04T08:05:39.110Z,1.08
2019-01-04T08:08:07.509Z,1.13
2019-01-04T08:10:35.919Z,1.32
2019-01-04T08:13:04.317Z,1.34
2019-01-04T08:15:32.968Z,1.37
2019-01-04T08:18:01.375Z,1.46
2019-01-04T08:20:29.765Z,1.38
2019-01-04T08:22:58.174Z,1.27
2019-01-04T08:25:26.892Z,1.28
2019-01-04T08:27:55.289Z,1.44
2019-01-04T08:30:23.951Z,1.48
2019-01-04T08:32:52.348Z,1.60
2019-01-04T08:35:20.761Z,1.70
2019-01-04T08:37:49.154Z,1.71
2019-01-04T08:40:17.540Z,1.67
2019-01-04T08:42:45.949Z,1.67
2019-01-04T08:45:14.347Z,1.66
2019-01-04T08:47:42.737Z,1.61
2019-01-04T08:50:11.306Z,1.66
2019-01-04T08:52:39.973Z,1.59
2019-01-04T08:55:09.397Z,1.58
2019-01-04T08:57:38.071Z,1.75
2019-01-04T09:00:11.912Z,1.74
2019-01-04T09:02:40.660Z,1.65
2019-01-04T09:05:09.451Z,1.86
2019-01-04T09:07:37.841Z,2.08
2019-01-04T09:10:07.596Z,2.03
2019-01-04T09:12:35.986Z,2.13
2019-01-04T09:15:06.548Z,2.35
2019-01-04T09:17:34.955Z,2.58
2019-01-04T09:20:04.882Z,2.20
2019-01-04T09:22:33.529Z,2.24
2019-01-04T09:25:01.937Z,2.41
2019-01-04T09:27:30.593Z,2.57
2019-01-04T09:29:58.984Z,2.81
2019-01-04T09:32:27.631Z,2.60
2019-01-04T09:34:56.348Z,2.83
2019-01-04T09:37:25.029Z,2.72
2019-01-04T09:39:53.443Z,2.74
2019-01-04T09:42:22.192Z,2.95
2019-01-04T09:44:50.882Z,3.20
2019-01-04T09:47:19.284Z,3.24
2019-01-04T09:49:47.678Z,3.49
2019-01-04T09:52:16.086Z,3.45
2019-01-04T09:54:44.488Z,3.28
2019-01-04T09:57:13.180Z,3.23
2019-01-04T09:59:41.830Z,3.56
2019-01-04T10:02:10.224Z,3.51
2019-01-04T10:04:38.614Z,3.41
2019-01-04T10:07:07.022Z,3.54
2019-01-04T10:09:35.414Z,3.70
2019-01-04T10:12:04.068Z,3.58
2019-01-04T10:14:32.474Z,3.57
2019-01-04T10:17:00.884Z,3.30
2019-01-04T10:19:29.283Z,3.54
2019-01-04T10:21:57.688Z,3.97
2019-01-04T10:24:26.080Z,3.73
2019-01-04T10:26:54.484Z,3.56
2019-01-04T10:29:22.887Z,3.45
2019-01-04T10:31:51.280Z,3.57
2019-01-04T10:34:19.685Z,3.41
2019-01-04T10:36:48.077Z,3.30
2019-01-04T10:39:16.748Z,3.39
2019-01-04T10:41:45.157Z,2.84
2019-01-04T10:44:13.814Z,3.15
2019-01-04T10:46:42.601Z,3.09
2019-01-04T10:49:11.288Z,3.28
2019-01-04T10:51:40.019Z,2.93
2019-01-04T10:54:08.385Z,3.26
2019-01-04T10:56:36.784Z,3.00
2019-01-04T10:59:05.622Z,3.10
2019-01-04T11:01:34.269Z,3.02
2019-01-04T11:04:02.662Z,2.92
2019-01-04T11:06:31.373Z,2.96
2019-01-04T11:08:59.777Z,2.73
2019-01-04T11:11:28.172Z,2.93
2019-01-04T11:13:56.576Z,2.94
2019-01-04T11:16:25.300Z,2.75
2019-01-04T11:18:53.694Z,2.68
2019-01-04T11:21:22.098Z,2.69
2019-01-04T11:23:59.251Z,2.71
2019-01-04T11:26:31.005Z,2.93
2019-01-04T11:29:18.882Z,2.83
2019-01-04T11:32:02.151Z,2.90
2019-01-04T11:34:49.837Z,3.12
2019-01-04T11:37:27.202Z,3.03
2019-01-04T11:40:13.661Z,3.13
2019-01-04T11:42:51.108Z,2.64
2019-01-04T11:45:22.843Z,2.54
2019-01-04T11:48:21.728Z,2.73
2019-01-04T11:51:14.057Z,2.58
2019-01-04T11:53:42.540Z,2.89
2019-01-04T11:56:10.930Z,3.22
2019-01-04T11:58:39.321Z,3.05
2019-01-04T12:01:07.727Z,3.05
2019-01-04T12:03:36.357Z,2.59
2019-01-04T12:06:04.749Z,2.66
2019-01-04T12:08:33.437Z,2.49
2019-01-04T12:11:01.830Z,2.71
2019-01-04T12:13:30.222Z,2.48
2019-01-04T12:15:58.632Z,2.46
2019-01-04T12:18:27.024Z,2.76
2019-01-04T12:20:55.738Z,2.61
2019-01-04T12:23:24.514Z,2.50
2019-01-04T12:25:52.893Z,2.53
2019-01-04T12:28:21.285Z,2.61
2019-01-04T12:30:49.969Z,2.37
2019-01-04T12:33:18.365Z,2.42
2019-01-04T12:35:46.751Z,2.43
2019-01-04T12:38:15.456Z,2.71
2019-01-04T12:40:43.803Z,2.48
2019-01-04T12:43:12.198Z,2.57
2019-01-04T12:45:40.606Z,2.42
2019-01-04T12:48:08.998Z,2.38
2019-01-04T12:50:37.387Z,2.21
2019-01-04T12:53:05.794Z,2.32
2019-01-04T12:55:34.184Z,2.57
2019-01-04T12:58:02.853Z,2.55
2019-01-04T13:00:31.257Z,2.64
2019-01-04T13:02:59.917Z,2.48
2019-01-04T13:05:28.608Z,2.67
2019-01-04T13:07:57.016Z,2.67
2019-01-04T13:10:25.874Z,3.01
2019-01-04T13:12:54.335Z,2.90
2019-01-04T13:15:22.740Z,2.91
2019-01-04T13:17:51.137Z,2.64
2019-01-04T13:20:19.539Z,3.06
2019-01-04T13:22:47.926Z,2.89
2019-01-04T13:25:16.339Z,2.78
2019-01-04T13:27:45.040Z,2.92
2019-01-04T13:30:13.724Z,2.76
2019-01-04T13:32:42.133Z,2.78
2019-01-04T13:35:10.524Z,2.84
2019-01-04T13:37:38.908Z,2.67
2019-01-04T13:40:07.650Z,2.53
2019-01-04T13:42:36.040Z,2.57
2019-01-04T13:45:05.471Z,2.67
2019-01-04T13:47:33.879Z,2.79
2019-01-04T13:50:02.596Z,2.81
2019-01-04T13:52:31.282Z,2.80
2019-01-04T13:54:59.697Z,2.74
2019-01-04T13:57:28.158Z,2.65
2019-01-04T13:59:56.841Z,2.80
2019-01-04T14:02:25.257Z,2.85
2019-01-04T14:04:53.646Z,2.76
2019-01-04T14:07:22.034Z,2.75
2019-01-04T14:09:50.451Z,2.80
2019-01-04T14:12:18.839Z,2.93
2019-01-04T14:14:47.242Z,2.87
2019-01-04T14:17:15.901Z,2.65
2019-01-04T14:19:44.579Z,2.58
2019-01-04T14:22:12.974Z,2.62
2019-01-04T14:24:41.403Z,2.70
2019-01-04T14:27:10.017Z,2.74
2019-01-04T14:29:38.707Z,2.62
2019-01-04T14:32:07.114Z,2.61
2019-01-04T14:34:35.523Z,2.77
2019-01-04T14:37:04.249Z,2.69
2019-01-04T14:39:32.639Z,2.66
2019-01-04T14:42:01.054Z,2.62
2019-01-04T14:44:29.692Z,2.52
2019-01-04T14:46:58.376Z,2.55
2019-01-04T14:49:27.027Z,2.47
2019-01-04T14:51:55.418Z,2.51
2019-01-04T14:54:24.052Z,2.62
2019-01-04T14:56:52.458Z,2.46
2019-01-04T14:59:21.194Z,2.39
2019-01-04T15:01:49.584Z,2.34
2019-01-04T15:04:18.258Z,2.41
2019-01-04T15:06:46.647Z,2.39
2019-01-04T15:09:15.048Z,2.35
2019-01-04T15:11:43.907Z,2.36
2019-01-04T15:14:12.596Z,2.24
2019-01-04T15:16:40.986Z,2.13
2019-01-04T15:19:09.389Z,2.21
2019-01-04T15:21:37.785Z,2.13
2019-01-04T15:24:06.191Z,2.05
2019-01-04T15:26:34.578Z,2.06
2019-01-04T15:29:02.978Z,1.99
2019-01-04T15:31:31.387Z,1.89
2019-01-04T15:33:59.779Z,1.84
2019-01-04T15:36:28.178Z,1.90
2019-01-04T15:38:56.573Z,1.79
2019-01-04T15:41:24.967Z,1.65
2019-01-04T15:43:53.369Z,1.55
2019-01-04T15:46:21.774Z,1.62
2019-01-04T15:48:50.160Z,1.61
2019-01-04T15:51:18.884Z,1.65
2019-01-04T15:53:47.577Z,1.75
2019-01-04T15:56:15.971Z,1.71
2019-01-04T15:58:44.635Z,1.79
2019-01-04T16:01:13.326Z,1.79
2019-01-04T16:03:41.716Z,1.84
2019-01-04T16:06:10.122Z,1.93
2019-01-04T16:08:38.769Z,1.87
2019-01-04T16:11:07.454Z,1.82
2019-01-04T16:13:35.858Z,1.77
2019-01-04T16:16:04.246Z,1.71
2019-01-04T16:18:32.632Z,1.77
2019-01-04T16:21:01.062Z,1.85
2019-01-04T16:23:29.454Z,1.71
2019-01-04T16:25:57.846Z,1.82
2019-01-04T16:28:26.249Z,1.75
2019-01-04T16:30:54.881Z,1.77
2019-01-04T16:33:23.580Z,1.81
2019-01-04T16:35:51.990Z,1.70
2019-01-04T16:38:20.641Z,1.63
2019-01-04T16:40:49.031Z,1.67
2019-01-04T16:43:17.437Z,1.73
2019-01-04T16:45:45.834Z,1.77
2019-01-04T16:48:14.568Z,1.75
2019-01-04T16:50:43.252Z,1.69
2019-01-04T16:53:11.644Z,1.68
2019-01-04T16:55:40.116Z,1.88
2019-01-04T16:58:08.521Z,1.82
2019-01-04T17:00:37.177Z,1.84
2019-01-04T17:03:05.643Z,1.72
2019-01-04T17:05:34.052Z,1.86
2019-01-04T17:08:02.508Z,1.85
2019-01-04T17:10:31.306Z,1.76
2019-01-04T17:12:59.718Z,1.83
2019-01-04T17:15:28.108Z,1.84
2019-01-04T17:17:56.538Z,1.84
2019-01-04T17:20:24.906Z,1.91
2019-01-04T17:22:53.295Z,1.94
2019-01-04T17:25:21.993Z,1.82
2019-01-04T17:27:50.409Z,1.84
2019-01-04T17:30:18.810Z,1.91
2019-01-04T17:32:47.202Z,1.88
2019-01-04T17:35:15.612Z,2.01
2019-01-04T17:37:43.998Z,2.02
2019-01-04T17:40:12.396Z,2.04
2019-01-04T17:42:40.877Z,2.06
2019-01-04T17:45:09.332Z,2.07
2019-01-04T17:47:37.724Z,2.03
2019-01-04T17:50:07.682Z,2.01
2019-01-04T17:52:36.064Z,2.07
2019-01-04T17:55:05.090Z,1.98
2019-01-04T17:57:33.783Z,2.00
2019-01-04T18:00:02.169Z,1.96
2019-01-04T18:02:30.557Z,1.94
2019-01-04T18:04:59.034Z,1.98
2019-01-04T18:07:27.707Z,1.96
2019-01-04T18:09:56.094Z,2.06
2019-01-04T18:12:24.769Z,2.05
2019-01-04T18:14:53.160Z,2.07
2019-01-04T18:17:21.832Z,2.07
2019-01-04T18:19:50.521Z,2.04
2019-01-04T18:22:19.204Z,2.02
2019-01-04T18:24:47.597Z,2.09
2019-01-04T18:27:16.002Z,2.04
2019-01-04T18:29:44.390Z,2.07
2019-01-04T18:32:12.782Z,2.02
2019-01-04T18:34:41.264Z,2.00
2019-01-04T18:37:09.989Z,2.09
2019-01-04T18:39:38.677Z,2.04
2019-01-04T18:42:07.362Z,2.09
2019-01-04T18:44:35.756Z,2.13
2019-01-04T18:47:04.210Z,2.09
2019-01-04T18:49:32.615Z,2.11
2019-01-04T18:52:01.004Z,2.18
2019-01-04T18:54:29.395Z,2.18
2019-01-04T18:56:57.799Z,2.14
2019-01-04T18:59:26.189Z,2.14
2019-01-04T19:01:54.571Z,2.19
2019-01-04T19:04:22.976Z,2.28
2019-01-04T19:06:51.688Z,2.19
2019-01-04T19:09:20.080Z,2.20
2019-01-04T19:11:48.490Z,2.25
2019-01-04T19:14:16.875Z,2.23
2019-01-04T19:16:52.453Z,2.31
2019-01-04T19:19:20.859Z,2.28
2019-01-04T19:21:49.254Z,2.30
2019-01-04T19:24:17.646Z,2.24
2019-01-04T19:26:46.397Z,2.31
2019-01-04T19:29:15.021Z,2.23
2019-01-04T19:31:43.415Z,2.28
2019-01-04T19:34:11.829Z,2.26
2019-01-04T19:36:40.224Z,2.26
2019-01-04T19:39:48.529Z,2.25
2019-01-04T19:42:16.916Z,2.26
2019-01-04T19:45:05.348Z,2.29
2019-01-04T19:47:33.741Z,2.33
2019-01-04T19:50:42.049Z,2.35
2019-01-04T19:53:10.445Z,2.32
2019-01-04T19:55:38.836Z,2.31
2019-01-04T19:58:07.631Z,2.26
2019-01-04T20:00:36.024Z,2.26
2019-01-04T20:03:04.675Z,2.25
2019-01-04T20:06:13.298Z,2.21
2019-01-04T20:09:39.478Z,2.29
2019-01-04T20:13:05.591Z,2.15
2019-01-04T20:16:13.945Z,2.30
2019-01-04T20:19:02.533Z,2.24
2019-01-04T20:24:39.146Z,2.25
2019-01-04T20:27:26.645Z,2.30
2019-01-04T20:30:14.404Z,2.30
2019-01-04T20:33:01.940Z,2.30
2019-01-04T20:38:24.990Z,2.28
2019-01-04T20:41:12.497Z,2.26
2019-01-04T20:44:00.018Z,2.25
2019-01-04T20:46:47.752Z,2.34
2019-01-04T20:49:35.279Z,2.29
2019-01-04T20:55:11.869Z,2.27
2019-01-04T20:57:59.630Z,2.26
2019-01-04T21:03:23.008Z,2.22
2019-01-04T21:08:59.606Z,2.12
2019-01-04T21:11:47.341Z,2.13
2019-01-04T21:14:34.859Z,2.13
2019-01-04T21:20:11.697Z,2.07
2019-01-04T21:22:59.438Z,2.04
2019-01-04T21:25:47.200Z,2.05
2019-01-04T21:28:34.726Z,1.95
2019-01-04T21:31:22.483Z,2.00
2019-01-04T21:34:10.221Z,1.97
2019-01-04T21:36:57.975Z,1.98
2019-01-04T21:39:45.480Z,1.98
2019-01-04T21:42:33.238Z,1.95
2019-01-04T21:45:20.981Z,2.02
2019-01-04T21:48:08.549Z,2.01
2019-01-04T21:50:56.302Z,1.98
2019-01-04T21:53:44.067Z,1.97
2019-01-04T21:59:20.906Z,1.96
2019-01-04T22:02:08.406Z,2.07
2019-01-04T22:04:55.929Z,2.11
2019-01-04T22:07:43.425Z,2.09
2019-01-04T22:10:30.976Z,2.13
2019-01-04T22:16:26.932Z,2.15
2019-01-04T22:19:14.434Z,2.17
2019-01-04T22:22:01.956Z,2.12
2019-01-04T22:27:38.790Z,2.12
2019-01-04T22:30:47.090Z,2.20
2019-01-04T22:33:34.850Z,2.20
2019-01-04T22:36:22.603Z,2.23
2019-01-04T22:39:10.124Z,2.25
2019-01-04T22:41:57.628Z,2.22
2019-01-04T22:44:45.410Z,2.19
2019-01-04T22:47:32.908Z,2.25
2019-01-04T22:50:21.131Z,2.22
2019-01-04T22:53:08.651Z,2.26
2019-01-04T22:55:56.173Z,2.22
2019-01-04T22:58:43.678Z,2.15
2019-01-04T23:01:31.508Z,2.21
2019-01-04T23:04:19.013Z,2.21
2019-01-04T23:07:06.538Z,2.25
2019-01-04T23:09:54.275Z,2.17
2019-01-04T23:12:41.798Z,2.13
2019-01-04T23:15:29.365Z,2.13
2019-01-04T23:18:17.174Z,2.13
2019-01-04T23:21:43.273Z,2.21
2019-01-04T23:24:30.807Z,2.20
2019-01-04T23:30:07.457Z,2.22
2019-01-04T23:35:44.053Z,2.29
2019-01-04T23:38:31.788Z,2.27
2019-01-04T23:41:19.313Z,2.22
2019-01-04T23:44:07.048Z,2.23
2019-01-04T23:49:30.406Z,2.31
2019-01-04T23:52:17.914Z,2.33
2019-01-04T23:55:05.449Z,2.34
